North Monmouth, Maine
Current Conditions -  °F | °C
As of 8:53 AM on Tuesday 21 Oct 2014 (Local Time) from KAUG Reporting Station
Broken Clouds Broken Clouds  
Wind Chill: 45°   Ceiling: 11000
Heat Index: 45°   Visibility: 10mi
Dew Point: 39°   Wind: 3mph
Humidity: 80%   Direction: 30°NNE
Pressure: 30.05"   Gusts: NA
Location:  44.28°N, 70.03°W
Report Text: KAUG 211253Z AUTO 03003KT 10SM BKN110 07/04 A3005 RMK AO2 SLP179 T00720039
Loading
Personal Weather Stations






























Interactive Weather Map
Tropical Storm Tracking
New forecast layout! Learn more

10-Day Weather Forecast

Advertisements
Track Severe Weather on mobile